Ruby, AK (99768)

5:13 AM AKST on February 21, 2017 (GMT -0900)
Ruby | | Change Station

Elev 653 ft 64.73 °N, 155.47 °W | Updated 2 hours ago

Partly Cloudy
Partly Cloudy
-23 °F
Feels Like -39 °F
N
6
Wind Variable Wind from East

Today
High -- | Low -- °F
--% Chance of Precip.
Yesterday
High -- | Low -- °F
Precip. -- in
Pressure 30.23 in
Visibility 10.0 miles
Clouds Few 6000 ft
Scattered Clouds 8500 ft
Windchill -39 °F
Dew Point -31 °F
Humidity 67%
Rainfall 0.00 in
Snow Depth Not available.
8:58 AM 6:18 PM
Waning Crescent, 25% visible
METAR PARY 211156Z AUTO 09005KT 10SM FEW060 SCT085 M31/M35 A3012 RMK AO2 SLP236 60000 T13061350 11283 21306 53008 FZRANO
Pressure 30.23 in
Visibility 10.0 miles
Clouds Few 6000 ft
Scattered Clouds 8500 ft
Windchill -39 °F
Dew Point -31 °F
Humidity 67%
Rainfall 0.00 in
Snow Depth Not available.
8:58 AM 6:18 PM
Waning Crescent, 25% visible
METAR PARY 211156Z AUTO 09005KT 10SM FEW060 SCT085 M31/M35 A3012 RMK AO2 SLP236 60000 T13061350 11283 21306 53008 FZRANO

Get Your Daily Forecast Email!

Thanks for signing up!

Be on the lookout for a verification email in your inbox.

You'll start receiving the daily forecast at 8 AM.

×

10-Day Weather Forecast

Almanac

Astronomy

Feb. 21, 2017 Rise Set
Actual Time
Civil Twilight
Nautical Twilight
Astronomical Twilight
Moon
Length of Visible Light
Length of Day
Tomorrow will be .
, % of the Moon is Illuminated

Today's Extremes

State Highs State Lows

Community

WunderPhotos

Upload Photos

1,962,540 photos uploaded!

WunderBlog® & News

Nearby

Air Quality

  Air Quality AQ Index Pollutant
Not available.

Snow Depth

Station Depth Elevation

Earthquake Activity

City Distance Mag. Time & Date
Minimum magnitude displayed is 2.5.

Coastal Water Temperatures

Place Temperature

Stations

Nearby Weather Stations

Station Location Temp. Windchill Dew Point Humidity Wind Precip. Elev Updated Type
                   

Watches & Warnings

There are currently no watches in effect.